sensor_id;sensor_type;location;lat;lon;timestamp;P1;durP1;ratioP1;P2;durP2;ratioP2
27857;SDS011;16852;51.446;6.528;2023-08-08T00:00:24;2.28;;;1.50;;
27857;SDS011;16852;51.446;6.528;2023-08-08T00:02:25;3.05;;;1.80;;
27857;SDS011;16852;51.446;6.528;2023-08-08T00:04:26;1.90;;;1.45;;
27857;SDS011;16852;51.446;6.528;2023-08-08T00:06:26;2.83;;;1.80;;
27857;SDS011;16852;51.446;6.528;2023-08-08T00:08:27;4.10;;;1.65;;
27857;SDS011;16852;51.446;6.528;2023-08-08T00:10:27;1.90;;;1.48;;
27857;SDS011;16852;51.446;6.528;2023-08-08T00:12:28;3.53;;;1.90;;
27857;SDS011;16852;51.446;6.528;2023-08-08T00:14:29;3.97;;;1.92;;
27857;SDS011;16852;51.446;6.528;2023-08-08T00:16:29;3.00;;;1.77;;
27857;SDS011;16852;51.446;6.528;2023-08-08T00:18:30;5.05;;;1.63;;
27857;SDS011;16852;51.446;6.528;2023-08-08T00:20:31;4.55;;;1.65;;
27857;SDS011;16852;51.446;6.528;2023-08-08T00:22:31;3.05;;;1.63;;
27857;SDS011;16852;51.446;6.528;2023-08-08T00:24:32;1.92;;;1.65;;
27857;SDS011;16852;51.446;6.528;2023-08-08T00:26:33;3.33;;;1.70;;
27857;SDS011;16852;51.446;6.528;2023-08-08T00:28:34;2.45;;;1.55;;
27857;SDS011;16852;51.446;6.528;2023-08-08T00:30:34;2.90;;;1.92;;
27857;SDS011;16852;51.446;6.528;2023-08-08T00:32:35;4.60;;;1.95;;
27857;SDS011;16852;51.446;6.528;2023-08-08T00:34:36;3.15;;;1.80;;
27857;SDS011;16852;51.446;6.528;2023-08-08T00:36:36;2.28;;;1.55;;
27857;SDS011;16852;51.446;6.528;2023-08-08T00:38:37;2.20;;;1.85;;
27857;SDS011;16852;51.446;6.528;2023-08-08T00:40:37;2.22;;;1.88;;
27857;SDS011;16852;51.446;6.528;2023-08-08T00:42:38;5.28;;;2.08;;
27857;SDS011;16852;51.446;6.528;2023-08-08T00:44:39;2.80;;;1.65;;
27857;SDS011;16852;51.446;6.528;2023-08-08T00:46:40;3.07;;;1.80;;
27857;SDS011;16852;51.446;6.528;2023-08-08T00:48:41;2.10;;;1.52;;
27857;SDS011;16852;51.446;6.528;2023-08-08T00:50:42;4.07;;;2.13;;
27857;SDS011;16852;51.446;6.528;2023-08-08T00:52:44;2.70;;;1.85;;
27857;SDS011;16852;51.446;6.528;2023-08-08T00:54:45;3.95;;;1.88;;
27857;SDS011;16852;51.446;6.528;2023-08-08T00:56:46;5.63;;;1.98;;
27857;SDS011;16852;51.446;6.528;2023-08-08T00:58:46;2.10;;;1.58;;
27857;SDS011;16852;51.446;6.528;2023-08-08T01:00:50;3.00;;;1.67;;
27857;SDS011;16852;51.446;6.528;2023-08-08T01:02:54;3.22;;;1.70;;
27857;SDS011;16852;51.446;6.528;2023-08-08T01:04:55;2.30;;;1.60;;
27857;SDS011;16852;51.446;6.528;2023-08-08T01:09:27;2.80;;;1.90;;
27857;SDS011;16852;51.446;6.528;2023-08-08T01:11:32;1.70;;;1.60;;
27857;SDS011;16852;51.446;6.528;2023-08-08T01:13:34;3.00;;;2.00;;
27857;SDS011;16852;51.446;6.528;2023-08-08T01:15:37;2.08;;;1.58;;
27857;SDS011;16852;51.446;6.528;2023-08-08T01:17:38;1.80;;;1.42;;
27857;SDS011;16852;51.446;6.528;2023-08-08T01:19:40;3.42;;;1.85;;
27857;SDS011;16852;51.446;6.528;2023-08-08T01:21:41;3.42;;;1.88;;
27857;SDS011;16852;51.446;6.528;2023-08-08T01:23:46;1.98;;;1.60;;
27857;SDS011;16852;51.446;6.528;2023-08-08T01:25:53;2.85;;;1.70;;
27857;SDS011;16852;51.446;6.528;2023-08-08T01:27:54;4.88;;;2.10;;
27857;SDS011;16852;51.446;6.528;2023-08-08T01:29:54;2.67;;;1.55;;
27857;SDS011;16852;51.446;6.528;2023-08-08T01:31:55;3.83;;;1.67;;
27857;SDS011;16852;51.446;6.528;2023-08-08T01:33:56;3.55;;;1.58;;
27857;SDS011;16852;51.446;6.528;2023-08-08T01:35:58;3.53;;;1.70;;
27857;SDS011;16852;51.446;6.528;2023-08-08T01:38:09;3.50;;;1.80;;
27857;SDS011;16852;51.446;6.528;2023-08-08T01:40:15;2.47;;;1.67;;
27857;SDS011;16852;51.446;6.528;2023-08-08T01:42:18;3.22;;;1.52;;
27857;SDS011;16852;51.446;6.528;2023-08-08T01:44:22;4.63;;;1.85;;
27857;SDS011;16852;51.446;6.528;2023-08-08T01:46:26;4.95;;;1.70;;
27857;SDS011;16852;51.446;6.528;2023-08-08T01:48:27;1.95;;;1.60;;
27857;SDS011;16852;51.446;6.528;2023-08-08T01:50:28;2.40;;;1.40;;
27857;SDS011;16852;51.446;6.528;2023-08-08T01:52:28;4.85;;;1.63;;
27857;SDS011;16852;51.446;6.528;2023-08-08T01:54:29;4.75;;;1.95;;
27857;SDS011;16852;51.446;6.528;2023-08-08T01:56:29;2.53;;;1.60;;
27857;SDS011;16852;51.446;6.528;2023-08-08T01:58:30;2.78;;;1.60;;
27857;SDS011;16852;51.446;6.528;2023-08-08T02:00:31;2.10;;;1.77;;
27857;SDS011;16852;51.446;6.528;2023-08-08T02:02:31;3.00;;;1.70;;
27857;SDS011;16852;51.446;6.528;2023-08-08T02:04:32;5.05;;;1.60;;
27857;SDS011;16852;51.446;6.528;2023-08-08T02:06:33;3.80;;;1.90;;
27857;SDS011;16852;51.446;6.528;2023-08-08T02:08:33;2.25;;;1.60;;
27857;SDS011;16852;51.446;6.528;2023-08-08T02:10:34;3.28;;;1.67;;
27857;SDS011;16852;51.446;6.528;2023-08-08T02:12:34;4.07;;;1.65;;
27857;SDS011;16852;51.446;6.528;2023-08-08T02:14:35;3.90;;;2.03;;
27857;SDS011;16852;51.446;6.528;2023-08-08T02:16:36;5.93;;;2.20;;
27857;SDS011;16852;51.446;6.528;2023-08-08T02:18:36;7.63;;;2.50;;
27857;SDS011;16852;51.446;6.528;2023-08-08T02:20:40;2.42;;;1.80;;
27857;SDS011;16852;51.446;6.528;2023-08-08T02:22:41;3.05;;;1.80;;
27857;SDS011;16852;51.446;6.528;2023-08-08T02:24:41;3.75;;;2.05;;
27857;SDS011;16852;51.446;6.528;2023-08-08T02:26:42;4.70;;;2.08;;
27857;SDS011;16852;51.446;6.528;2023-08-08T02:28:42;4.95;;;2.20;;
27857;SDS011;16852;51.446;6.528;2023-08-08T02:30:44;3.60;;;1.75;;
27857;SDS011;16852;51.446;6.528;2023-08-08T02:32:44;4.95;;;1.90;;
27857;SDS011;16852;51.446;6.528;2023-08-08T02:34:45;3.58;;;1.75;;
27857;SDS011;16852;51.446;6.528;2023-08-08T02:36:45;4.25;;;1.90;;
27857;SDS011;16852;51.446;6.528;2023-08-08T02:38:46;3.80;;;1.77;;
27857;SDS011;16852;51.446;6.528;2023-08-08T02:40:47;5.88;;;2.20;;
27857;SDS011;16852;51.446;6.528;2023-08-08T02:42:47;3.75;;;1.85;;
27857;SDS011;16852;51.446;6.528;2023-08-08T02:44:48;5.47;;;1.88;;
27857;SDS011;16852;51.446;6.528;2023-08-08T02:46:48;3.35;;;1.88;;
27857;SDS011;16852;51.446;6.528;2023-08-08T02:48:49;3.53;;;1.73;;
27857;SDS011;16852;51.446;6.528;2023-08-08T02:50:49;2.83;;;1.83;;
27857;SDS011;16852;51.446;6.528;2023-08-08T02:52:50;5.13;;;1.75;;
27857;SDS011;16852;51.446;6.528;2023-08-08T02:54:51;3.22;;;1.88;;
27857;SDS011;16852;51.446;6.528;2023-08-08T02:56:52;2.25;;;1.52;;
27857;SDS011;16852;51.446;6.528;2023-08-08T02:58:53;5.18;;;1.85;;
27857;SDS011;16852;51.446;6.528;2023-08-08T03:00:53;3.22;;;1.90;;
27857;SDS011;16852;51.446;6.528;2023-08-08T03:02:54;4.00;;;2.17;;
27857;SDS011;16852;51.446;6.528;2023-08-08T03:04:55;5.05;;;1.90;;
27857;SDS011;16852;51.446;6.528;2023-08-08T03:06:56;3.88;;;2.10;;
27857;SDS011;16852;51.446;6.528;2023-08-08T03:08:56;2.35;;;1.48;;
27857;SDS011;16852;51.446;6.528;2023-08-08T03:10:57;5.65;;;2.08;;
27857;SDS011;16852;51.446;6.528;2023-08-08T03:12:57;3.25;;;1.90;;
27857;SDS011;16852;51.446;6.528;2023-08-08T03:14:58;6.05;;;2.30;;
27857;SDS011;16852;51.446;6.528;2023-08-08T03:16:59;4.30;;;2.05;;
27857;SDS011;16852;51.446;6.528;2023-08-08T03:18:59;3.80;;;1.80;;
27857;SDS011;16852;51.446;6.528;2023-08-08T03:21:00;6.35;;;2.22;;
27857;SDS011;16852;51.446;6.528;2023-08-08T03:23:01;4.30;;;2.17;;
27857;SDS011;16852;51.446;6.528;2023-08-08T03:25:01;6.00;;;2.30;;
27857;SDS011;16852;51.446;6.528;2023-08-08T03:27:04;3.72;;;1.70;;
27857;SDS011;16852;51.446;6.528;2023-08-08T03:29:05;4.97;;;2.13;;
27857;SDS011;16852;51.446;6.528;2023-08-08T03:31:09;4.40;;;1.98;;
27857;SDS011;16852;51.446;6.528;2023-08-08T03:33:10;3.47;;;1.83;;
27857;SDS011;16852;51.446;6.528;2023-08-08T03:35:11;7.40;;;2.05;;
27857;SDS011;16852;51.446;6.528;2023-08-08T03:37:11;5.13;;;1.92;;
27857;SDS011;16852;51.446;6.528;2023-08-08T03:39:12;9.57;;;2.50;;
27857;SDS011;16852;51.446;6.528;2023-08-08T03:41:13;4.20;;;1.98;;
27857;SDS011;16852;51.446;6.528;2023-08-08T03:43:13;5.05;;;2.20;;
27857;SDS011;16852;51.446;6.528;2023-08-08T03:45:14;3.65;;;1.92;;
27857;SDS011;16852;51.446;6.528;2023-08-08T03:47:15;3.28;;;2.13;;
27857;SDS011;16852;51.446;6.528;2023-08-08T03:49:16;5.05;;;2.33;;
27857;SDS011;16852;51.446;6.528;2023-08-08T03:51:16;5.93;;;2.05;;
27857;SDS011;16852;51.446;6.528;2023-08-08T03:53:17;5.82;;;2.35;;
27857;SDS011;16852;51.446;6.528;2023-08-08T03:55:17;4.63;;;1.73;;
27857;SDS011;16852;51.446;6.528;2023-08-08T03:57:18;3.53;;;1.80;;
27857;SDS011;16852;51.446;6.528;2023-08-08T03:59:19;5.63;;;1.90;;
27857;SDS011;16852;51.446;6.528;2023-08-08T04:01:19;5.97;;;2.47;;
27857;SDS011;16852;51.446;6.528;2023-08-08T04:03:20;4.10;;;2.00;;
27857;SDS011;16852;51.446;6.528;2023-08-08T04:05:20;4.57;;;2.03;;
27857;SDS011;16852;51.446;6.528;2023-08-08T04:07:21;3.78;;;2.15;;
27857;SDS011;16852;51.446;6.528;2023-08-08T04:09:22;4.97;;;2.20;;
27857;SDS011;16852;51.446;6.528;2023-08-08T04:11:22;5.80;;;2.08;;
27857;SDS011;16852;51.446;6.528;2023-08-08T04:13:23;5.38;;;2.00;;
27857;SDS011;16852;51.446;6.528;2023-08-08T04:15:23;6.07;;;2.30;;
27857;SDS011;16852;51.446;6.528;2023-08-08T04:17:24;7.88;;;2.42;;
27857;SDS011;16852;51.446;6.528;2023-08-08T04:19:25;5.22;;;2.38;;
27857;SDS011;16852;51.446;6.528;2023-08-08T04:21:25;4.07;;;2.00;;
27857;SDS011;16852;51.446;6.528;2023-08-08T04:23:28;3.42;;;2.00;;
27857;SDS011;16852;51.446;6.528;2023-08-08T04:25:29;5.28;;;2.22;;
27857;SDS011;16852;51.446;6.528;2023-08-08T04:27:30;5.03;;;2.33;;
27857;SDS011;16852;51.446;6.528;2023-08-08T04:29:30;8.07;;;2.35;;
27857;SDS011;16852;51.446;6.528;2023-08-08T04:31:31;3.75;;;1.88;;
27857;SDS011;16852;51.446;6.528;2023-08-08T04:33:31;5.88;;;2.60;;
27857;SDS011;16852;51.446;6.528;2023-08-08T04:35:32;6.07;;;2.63;;
27857;SDS011;16852;51.446;6.528;2023-08-08T04:37:33;6.88;;;2.67;;
27857;SDS011;16852;51.446;6.528;2023-08-08T04:39:33;3.90;;;1.88;;
27857;SDS011;16852;51.446;6.528;2023-08-08T04:41:34;3.53;;;1.80;;
27857;SDS011;16852;51.446;6.528;2023-08-08T04:43:35;6.22;;;2.47;;
27857;SDS011;16852;51.446;6.528;2023-08-08T04:45:35;8.40;;;2.65;;
27857;SDS011;16852;51.446;6.528;2023-08-08T04:47:36;4.68;;;2.33;;
27857;SDS011;16852;51.446;6.528;2023-08-08T04:49:36;4.95;;;2.22;;
27857;SDS011;16852;51.446;6.528;2023-08-08T04:51:37;7.10;;;2.92;;
27857;SDS011;16852;51.446;6.528;2023-08-08T04:53:38;7.95;;;3.08;;
27857;SDS011;16852;51.446;6.528;2023-08-08T04:55:38;7.03;;;2.75;;
27857;SDS011;16852;51.446;6.528;2023-08-08T04:57:39;7.22;;;2.65;;
27857;SDS011;16852;51.446;6.528;2023-08-08T04:59:39;8.90;;;3.03;;
27857;SDS011;16852;51.446;6.528;2023-08-08T05:01:40;7.97;;;2.95;;
27857;SDS011;16852;51.446;6.528;2023-08-08T05:03:41;6.13;;;2.92;;
27857;SDS011;16852;51.446;6.528;2023-08-08T05:05:41;7.75;;;3.25;;
27857;SDS011;16852;51.446;6.528;2023-08-08T05:07:44;4.65;;;2.33;;
27857;SDS011;16852;51.446;6.528;2023-08-08T05:09:45;6.93;;;2.75;;
27857;SDS011;16852;51.446;6.528;2023-08-08T05:11:46;5.53;;;2.78;;
27857;SDS011;16852;51.446;6.528;2023-08-08T05:13:46;5.10;;;2.60;;
27857;SDS011;16852;51.446;6.528;2023-08-08T05:15:47;6.15;;;2.80;;
27857;SDS011;16852;51.446;6.528;2023-08-08T05:17:48;10.73;;;3.30;;
27857;SDS011;16852;51.446;6.528;2023-08-08T05:19:48;8.00;;;2.67;;
27857;SDS011;16852;51.446;6.528;2023-08-08T05:21:49;7.90;;;3.33;;
27857;SDS011;16852;51.446;6.528;2023-08-08T05:23:49;10.60;;;4.07;;
27857;SDS011;16852;51.446;6.528;2023-08-08T05:25:50;8.35;;;3.60;;
27857;SDS011;16852;51.446;6.528;2023-08-08T05:27:51;10.15;;;4.45;;
27857;SDS011;16852;51.446;6.528;2023-08-08T05:29:53;9.75;;;4.20;;
27857;SDS011;16852;51.446;6.528;2023-08-08T05:31:53;9.82;;;4.30;;
27857;SDS011;16852;51.446;6.528;2023-08-08T05:33:54;8.52;;;4.35;;
27857;SDS011;16852;51.446;6.528;2023-08-08T05:35:55;7.50;;;4.13;;
27857;SDS011;16852;51.446;6.528;2023-08-08T05:37:56;8.65;;;4.63;;
27857;SDS011;16852;51.446;6.528;2023-08-08T05:39:56;13.50;;;4.70;;
27857;SDS011;16852;51.446;6.528;2023-08-08T05:41:57;12.07;;;5.00;;
27857;SDS011;16852;51.446;6.528;2023-08-08T05:43:58;11.73;;;5.10;;
27857;SDS011;16852;51.446;6.528;2023-08-08T05:45:58;11.18;;;5.00;;
27857;SDS011;16852;51.446;6.528;2023-08-08T05:47:59;14.45;;;6.40;;
27857;SDS011;16852;51.446;6.528;2023-08-08T05:50:00;12.57;;;5.50;;
27857;SDS011;16852;51.446;6.528;2023-08-08T05:52:01;9.50;;;5.50;;
27857;SDS011;16852;51.446;6.528;2023-08-08T05:54:02;14.52;;;6.43;;
27857;SDS011;16852;51.446;6.528;2023-08-08T05:56:03;12.90;;;6.32;;
27857;SDS011;16852;51.446;6.528;2023-08-08T05:58:04;17.75;;;7.78;;
27857;SDS011;16852;51.446;6.528;2023-08-08T06:00:04;15.18;;;6.50;;
27857;SDS011;16852;51.446;6.528;2023-08-08T06:02:08;14.45;;;7.28;;
27857;SDS011;16852;51.446;6.528;2023-08-08T06:04:08;11.00;;;5.55;;
27857;SDS011;16852;51.446;6.528;2023-08-08T06:06:09;12.32;;;6.60;;
27857;SDS011;16852;51.446;6.528;2023-08-08T06:08:10;13.57;;;7.47;;
27857;SDS011;16852;51.446;6.528;2023-08-08T06:10:12;18.35;;;6.88;;
27857;SDS011;16852;51.446;6.528;2023-08-08T06:12:12;14.07;;;6.80;;
27857;SDS011;16852;51.446;6.528;2023-08-08T06:14:13;11.40;;;6.55;;
27857;SDS011;16852;51.446;6.528;2023-08-08T06:16:14;13.68;;;6.65;;
27857;SDS011;16852;51.446;6.528;2023-08-08T06:18:16;13.50;;;7.03;;
27857;SDS011;16852;51.446;6.528;2023-08-08T06:20:17;12.37;;;6.83;;
27857;SDS011;16852;51.446;6.528;2023-08-08T06:22:18;14.50;;;7.78;;
27857;SDS011;16852;51.446;6.528;2023-08-08T06:24:18;11.00;;;6.65;;
27857;SDS011;16852;51.446;6.528;2023-08-08T06:26:19;14.65;;;6.90;;
27857;SDS011;16852;51.446;6.528;2023-08-08T06:28:21;13.80;;;6.97;;
27857;SDS011;16852;51.446;6.528;2023-08-08T06:30:21;13.30;;;7.00;;
27857;SDS011;16852;51.446;6.528;2023-08-08T06:32:22;12.25;;;7.50;;
27857;SDS011;16852;51.446;6.528;2023-08-08T06:34:22;14.35;;;6.95;;
27857;SDS011;16852;51.446;6.528;2023-08-08T06:36:23;11.13;;;6.10;;
27857;SDS011;16852;51.446;6.528;2023-08-08T06:38:24;6.50;;;4.47;;
27857;SDS011;16852;51.446;6.528;2023-08-08T06:40:25;14.48;;;7.07;;
27857;SDS011;16852;51.446;6.528;2023-08-08T06:42:25;14.40;;;6.53;;
27857;SDS011;16852;51.446;6.528;2023-08-08T06:44:26;7.63;;;4.88;;
27857;SDS011;16852;51.446;6.528;2023-08-08T06:46:26;6.95;;;4.38;;
27857;SDS011;16852;51.446;6.528;2023-08-08T06:48:27;8.32;;;4.57;;
27857;SDS011;16852;51.446;6.528;2023-08-08T06:50:27;9.32;;;4.13;;
27857;SDS011;16852;51.446;6.528;2023-08-08T06:52:28;7.85;;;3.90;;
27857;SDS011;16852;51.446;6.528;2023-08-08T06:54:29;7.15;;;3.58;;
27857;SDS011;16852;51.446;6.528;2023-08-08T06:56:29;10.73;;;4.25;;
27857;SDS011;16852;51.446;6.528;2023-08-08T06:58:30;7.10;;;3.90;;
27857;SDS011;16852;51.446;6.528;2023-08-08T07:00:30;7.75;;;3.13;;
27857;SDS011;16852;51.446;6.528;2023-08-08T07:02:31;5.85;;;2.78;;
27857;SDS011;16852;51.446;6.528;2023-08-08T07:04:32;5.85;;;3.03;;
27857;SDS011;16852;51.446;6.528;2023-08-08T07:06:32;7.10;;;2.53;;
27857;SDS011;16852;51.446;6.528;2023-08-08T07:08:33;7.70;;;2.25;;
27857;SDS011;16852;51.446;6.528;2023-08-08T07:10:34;5.68;;;2.85;;
27857;SDS011;16852;51.446;6.528;2023-08-08T07:12:35;7.65;;;2.47;;
27857;SDS011;16852;51.446;6.528;2023-08-08T07:14:36;6.45;;;2.55;;
27857;SDS011;16852;51.446;6.528;2023-08-08T07:16:36;5.25;;;2.22;;
27857;SDS011;16852;51.446;6.528;2023-08-08T07:18:37;6.22;;;2.70;;
27857;SDS011;16852;51.446;6.528;2023-08-08T07:20:38;7.93;;;2.30;;
27857;SDS011;16852;51.446;6.528;2023-08-08T07:22:39;6.10;;;2.65;;
27857;SDS011;16852;51.446;6.528;2023-08-08T07:24:40;9.20;;;2.47;;
27857;SDS011;16852;51.446;6.528;2023-08-08T07:26:40;6.10;;;3.10;;
27857;SDS011;16852;51.446;6.528;2023-08-08T07:28:41;7.25;;;2.55;;
27857;SDS011;16852;51.446;6.528;2023-08-08T07:30:41;7.63;;;2.80;;
27857;SDS011;16852;51.446;6.528;2023-08-08T07:32:42;7.65;;;2.53;;
27857;SDS011;16852;51.446;6.528;2023-08-08T07:34:43;9.23;;;2.88;;
27857;SDS011;16852;51.446;6.528;2023-08-08T07:36:43;7.32;;;2.50;;
27857;SDS011;16852;51.446;6.528;2023-08-08T07:38:44;7.82;;;2.50;;
27857;SDS011;16852;51.446;6.528;2023-08-08T07:40:44;5.30;;;2.28;;
27857;SDS011;16852;51.446;6.528;2023-08-08T07:42:46;6.47;;;2.42;;
27857;SDS011;16852;51.446;6.528;2023-08-08T07:44:48;7.35;;;2.20;;
27857;SDS011;16852;51.446;6.528;2023-08-08T07:46:48;5.40;;;2.30;;
27857;SDS011;16852;51.446;6.528;2023-08-08T07:48:49;11.15;;;2.80;;
27857;SDS011;16852;51.446;6.528;2023-08-08T07:50:51;9.38;;;3.22;;
27857;SDS011;16852;51.446;6.528;2023-08-08T07:52:52;5.82;;;2.45;;
27857;SDS011;16852;51.446;6.528;2023-08-08T07:54:52;8.60;;;2.92;;
27857;SDS011;16852;51.446;6.528;2023-08-08T07:56:53;8.27;;;3.10;;
27857;SDS011;16852;51.446;6.528;2023-08-08T07:58:54;11.82;;;3.17;;
27857;SDS011;16852;51.446;6.528;2023-08-08T08:00:54;6.63;;;2.58;;
27857;SDS011;16852;51.446;6.528;2023-08-08T08:02:55;12.25;;;2.78;;
27857;SDS011;16852;51.446;6.528;2023-08-08T08:04:56;6.68;;;2.55;;
27857;SDS011;16852;51.446;6.528;2023-08-08T08:06:57;6.70;;;2.35;;
27857;SDS011;16852;51.446;6.528;2023-08-08T08:08:57;4.70;;;2.00;;
27857;SDS011;16852;51.446;6.528;2023-08-08T08:10:58;6.78;;;2.50;;
27857;SDS011;16852;51.446;6.528;2023-08-08T08:12:59;8.23;;;2.42;;
27857;SDS011;16852;51.446;6.528;2023-08-08T08:15:00;7.68;;;2.55;;
27857;SDS011;16852;51.446;6.528;2023-08-08T08:17:01;6.10;;;2.28;;
27857;SDS011;16852;51.446;6.528;2023-08-08T08:19:02;5.90;;;2.47;;
27857;SDS011;16852;51.446;6.528;2023-08-08T08:21:03;6.10;;;2.17;;
27857;SDS011;16852;51.446;6.528;2023-08-08T08:23:04;5.15;;;2.10;;
27857;SDS011;16852;51.446;6.528;2023-08-08T08:25:05;6.57;;;2.10;;
27857;SDS011;16852;51.446;6.528;2023-08-08T08:27:08;6.30;;;1.77;;
27857;SDS011;16852;51.446;6.528;2023-08-08T08:29:09;5.30;;;1.88;;
27857;SDS011;16852;51.446;6.528;2023-08-08T08:31:10;3.72;;;1.80;;
27857;SDS011;16852;51.446;6.528;2023-08-08T08:33:10;11.18;;;2.70;;
27857;SDS011;16852;51.446;6.528;2023-08-08T08:35:11;8.13;;;2.35;;
27857;SDS011;16852;51.446;6.528;2023-08-08T08:37:13;3.03;;;1.80;;
27857;SDS011;16852;51.446;6.528;2023-08-08T08:39:13;5.30;;;1.77;;
27857;SDS011;16852;51.446;6.528;2023-08-08T08:41:15;5.40;;;1.98;;
27857;SDS011;16852;51.446;6.528;2023-08-08T08:43:19;5.03;;;1.95;;
27857;SDS011;16852;51.446;6.528;2023-08-08T08:45:20;4.72;;;1.88;;
27857;SDS011;16852;51.446;6.528;2023-08-08T08:47:23;5.22;;;2.00;;
27857;SDS011;16852;51.446;6.528;2023-08-08T08:49:25;6.30;;;1.87;;
27857;SDS011;16852;51.446;6.528;2023-08-08T08:51:29;5.07;;;1.85;;
27857;SDS011;16852;51.446;6.528;2023-08-08T08:53:30;3.60;;;1.73;;
27857;SDS011;16852;51.446;6.528;2023-08-08T08:55:31;6.35;;;2.25;;
27857;SDS011;16852;51.446;6.528;2023-08-08T08:57:32;5.20;;;1.92;;
27857;SDS011;16852;51.446;6.528;2023-08-08T08:59:33;4.07;;;1.95;;
27857;SDS011;16852;51.446;6.528;2023-08-08T09:01:34;4.30;;;1.92;;
27857;SDS011;16852;51.446;6.528;2023-08-08T09:03:35;7.85;;;2.38;;
27857;SDS011;16852;51.446;6.528;2023-08-08T09:05:36;8.98;;;2.35;;
27857;SDS011;16852;51.446;6.528;2023-08-08T09:07:41;6.05;;;1.73;;
27857;SDS011;16852;51.446;6.528;2023-08-08T09:09:42;4.70;;;1.80;;
27857;SDS011;16852;51.446;6.528;2023-08-08T09:11:44;4.07;;;2.35;;
27857;SDS011;16852;51.446;6.528;2023-08-08T09:13:45;5.22;;;2.17;;
27857;SDS011;16852;51.446;6.528;2023-08-08T09:15:46;8.52;;;2.83;;
27857;SDS011;16852;51.446;6.528;2023-08-08T09:17:48;4.75;;;2.10;;
27857;SDS011;16852;51.446;6.528;2023-08-08T09:19:48;6.57;;;2.65;;
27857;SDS011;16852;51.446;6.528;2023-08-08T09:21:49;7.85;;;2.25;;
27857;SDS011;16852;51.446;6.528;2023-08-08T09:23:52;5.93;;;2.00;;
27857;SDS011;16852;51.446;6.528;2023-08-08T09:25:52;6.90;;;1.90;;
27857;SDS011;16852;51.446;6.528;2023-08-08T09:27:53;5.80;;;1.95;;
27857;SDS011;16852;51.446;6.528;2023-08-08T09:29:54;9.00;;;2.67;;
27857;SDS011;16852;51.446;6.528;2023-08-08T09:31:54;9.63;;;2.45;;
27857;SDS011;16852;51.446;6.528;2023-08-08T09:34:00;6.55;;;2.40;;
27857;SDS011;16852;51.446;6.528;2023-08-08T09:36:01;6.03;;;2.40;;
27857;SDS011;16852;51.446;6.528;2023-08-08T09:38:03;10.63;;;2.45;;
27857;SDS011;16852;51.446;6.528;2023-08-08T09:40:04;4.47;;;1.80;;
27857;SDS011;16852;51.446;6.528;2023-08-08T09:42:08;4.47;;;1.98;;
27857;SDS011;16852;51.446;6.528;2023-08-08T09:44:11;12.82;;;2.28;;
27857;SDS011;16852;51.446;6.528;2023-08-08T09:46:12;4.00;;;1.65;;
27857;SDS011;16852;51.446;6.528;2023-08-08T09:48:13;4.40;;;1.85;;
27857;SDS011;16852;51.446;6.528;2023-08-08T09:50:14;4.22;;;1.70;;
27857;SDS011;16852;51.446;6.528;2023-08-08T09:52:15;6.60;;;1.95;;
27857;SDS011;16852;51.446;6.528;2023-08-08T09:54:16;3.10;;;1.48;;
27857;SDS011;16852;51.446;6.528;2023-08-08T09:56:18;5.25;;;1.80;;
27857;SDS011;16852;51.446;6.528;2023-08-08T09:58:20;5.05;;;2.00;;
27857;SDS011;16852;51.446;6.528;2023-08-08T10:00:21;5.10;;;2.00;;
27857;SDS011;16852;51.446;6.528;2023-08-08T10:02:22;6.25;;;2.42;;
27857;SDS011;16852;51.446;6.528;2023-08-08T10:04:23;6.20;;;2.47;;
27857;SDS011;16852;51.446;6.528;2023-08-08T10:06:24;9.93;;;2.88;;
27857;SDS011;16852;51.446;6.528;2023-08-08T10:08:26;5.55;;;1.70;;
27857;SDS011;16852;51.446;6.528;2023-08-08T10:10:27;7.93;;;2.38;;
27857;SDS011;16852;51.446;6.528;2023-08-08T10:12:29;5.30;;;1.97;;
27857;SDS011;16852;51.446;6.528;2023-08-08T10:14:31;4.47;;;1.75;;
27857;SDS011;16852;51.446;6.528;2023-08-08T10:16:32;8.87;;;2.37;;
27857;SDS011;16852;51.446;6.528;2023-08-08T10:18:33;6.82;;;2.15;;
27857;SDS011;16852;51.446;6.528;2023-08-08T10:20:35;3.53;;;1.58;;
27857;SDS011;16852;51.446;6.528;2023-08-08T10:22:44;4.35;;;1.88;;
27857;SDS011;16852;51.446;6.528;2023-08-08T10:24:47;3.72;;;1.63;;
27857;SDS011;16852;51.446;6.528;2023-08-08T10:26:51;4.68;;;2.13;;
27857;SDS011;16852;51.446;6.528;2023-08-08T10:28:55;3.97;;;1.58;;
27857;SDS011;16852;51.446;6.528;2023-08-08T10:30:57;5.47;;;2.10;;
27857;SDS011;16852;51.446;6.528;2023-08-08T10:33:01;3.70;;;1.30;;
27857;SDS011;16852;51.446;6.528;2023-08-08T10:35:05;6.43;;;2.25;;
27857;SDS011;16852;51.446;6.528;2023-08-08T10:37:14;6.28;;;1.80;;
27857;SDS011;16852;51.446;6.528;2023-08-08T10:39:18;3.80;;;1.40;;
27857;SDS011;16852;51.446;6.528;2023-08-08T10:41:21;5.22;;;1.67;;
27857;SDS011;16852;51.446;6.528;2023-08-08T10:43:25;5.07;;;1.70;;
27857;SDS011;16852;51.446;6.528;2023-08-08T10:45:29;6.38;;;1.98;;
27857;SDS011;16852;51.446;6.528;2023-08-08T10:47:34;4.30;;;1.60;;
27857;SDS011;16852;51.446;6.528;2023-08-08T10:49:36;7.13;;;2.10;;
27857;SDS011;16852;51.446;6.528;2023-08-08T10:51:38;5.40;;;1.48;;
27857;SDS011;16852;51.446;6.528;2023-08-08T10:53:42;3.13;;;1.40;;
27857;SDS011;16852;51.446;6.528;2023-08-08T10:55:43;5.57;;;1.95;;
27857;SDS011;16852;51.446;6.528;2023-08-08T10:57:51;6.57;;;1.85;;
27857;SDS011;16852;51.446;6.528;2023-08-08T11:00:17;6.35;;;1.85;;
27857;SDS011;16852;51.446;6.528;2023-08-08T11:02:19;4.50;;;1.90;;
27857;SDS011;16852;51.446;6.528;2023-08-08T11:04:23;4.95;;;1.80;;
27857;SDS011;16852;51.446;6.528;2023-08-08T11:06:26;4.88;;;1.80;;
27857;SDS011;16852;51.446;6.528;2023-08-08T11:08:27;5.90;;;1.90;;
27857;SDS011;16852;51.446;6.528;2023-08-08T11:10:36;4.60;;;1.80;;
27857;SDS011;16852;51.446;6.528;2023-08-08T11:12:38;5.68;;;1.85;;
27857;SDS011;16852;51.446;6.528;2023-08-08T11:14:39;7.15;;;2.03;;
27857;SDS011;16852;51.446;6.528;2023-08-08T11:16:39;7.40;;;2.08;;
27857;SDS011;16852;51.446;6.528;2023-08-08T11:18:41;7.15;;;1.80;;
27857;SDS011;16852;51.446;6.528;2023-08-08T11:20:43;4.27;;;2.17;;
27857;SDS011;16852;51.446;6.528;2023-08-08T11:22:44;5.10;;;1.83;;
27857;SDS011;16852;51.446;6.528;2023-08-08T11:24:44;3.47;;;1.42;;
27857;SDS011;16852;51.446;6.528;2023-08-08T11:26:45;9.82;;;2.42;;
27857;SDS011;16852;51.446;6.528;2023-08-08T11:28:50;3.28;;;1.52;;
27857;SDS011;16852;51.446;6.528;2023-08-08T11:30:52;6.82;;;2.08;;
27857;SDS011;16852;51.446;6.528;2023-08-08T11:32:52;5.00;;;1.73;;
27857;SDS011;16852;51.446;6.528;2023-08-08T11:34:54;4.05;;;1.92;;
27857;SDS011;16852;51.446;6.528;2023-08-08T11:36:55;3.57;;;1.73;;
27857;SDS011;16852;51.446;6.528;2023-08-08T11:38:59;4.28;;;1.60;;
27857;SDS011;16852;51.446;6.528;2023-08-08T11:41:10;5.00;;;1.95;;
27857;SDS011;16852;51.446;6.528;2023-08-08T11:43:12;5.60;;;1.83;;
27857;SDS011;16852;51.446;6.528;2023-08-08T11:45:13;5.95;;;1.92;;
27857;SDS011;16852;51.446;6.528;2023-08-08T11:47:14;5.43;;;1.58;;
27857;SDS011;16852;51.446;6.528;2023-08-08T11:49:15;2.78;;;1.55;;
27857;SDS011;16852;51.446;6.528;2023-08-08T11:51:17;2.58;;;1.50;;
27857;SDS011;16852;51.446;6.528;2023-08-08T11:53:18;3.53;;;1.50;;
27857;SDS011;16852;51.446;6.528;2023-08-08T11:55:20;4.87;;;1.63;;
27857;SDS011;16852;51.446;6.528;2023-08-08T11:57:22;5.05;;;1.83;;
27857;SDS011;16852;51.446;6.528;2023-08-08T11:59:23;5.78;;;1.80;;
27857;SDS011;16852;51.446;6.528;2023-08-08T12:01:25;3.90;;;1.88;;
27857;SDS011;16852;51.446;6.528;2023-08-08T12:03:26;6.30;;;1.92;;
27857;SDS011;16852;51.446;6.528;2023-08-08T12:05:27;3.47;;;1.70;;
27857;SDS011;16852;51.446;6.528;2023-08-08T12:07:28;5.35;;;2.00;;
27857;SDS011;16852;51.446;6.528;2023-08-08T12:09:33;3.58;;;1.60;;
27857;SDS011;16852;51.446;6.528;2023-08-08T12:11:35;4.18;;;1.95;;